Flight Track Log - Related Links

Times and Time Zones

All times are in EDT time to prevent confusion due to time zone crossing. See the EJA831 flight status page for this flight to view local times or setup timezone preferences in your user account.

Time Position Orientation Groundspeed Altitude Reporting Facility
EDT Latitude Longitude Course Direction KTS MPH feet Rate Location/Type
Sun 10:32:36 AM 41.8858 -91.7886 255° West 216 249 4,100  Level Chicago Center
Sun 10:33:38 AM 41.8633 -91.9025 255° West 274 315 8,000 3,435 Climbing Chicago Center
Sun 10:34:40 AM 41.8392 -92.0014 252° West 278 320 11,200 2,758 Climbing Chicago Center
Sun 10:35:42 AM 41.8161 -92.1014 253° West 283 326 13,700 2,448 Climbing Chicago Center
Sun 10:36:45 AM 41.7900 -92.2078 252° West 300 345 16,300 2,208 Climbing Chicago Center
Sun 10:37:47 AM 41.7653 -92.3131 253° West 300 345 18,300 2,081 Climbing Chicago Center
Sun 10:38:49 AM 41.7319 -92.4419 251° West 303 349 20,600 1,839 Climbing Chicago Center
Sun 10:39:51 AM 41.7056 -92.5536 252° West 310 357 22,100 1,355 Climbing Chicago Center
Sun 10:40:53 AM 41.6783 -92.6767 254° West 330 380 23,400 1,355 Climbing Chicago Center
Sun 10:41:55 AM 41.6489 -92.7978 252° West 341 392 24,900 1,645 Climbing Chicago Center
Sun 10:42:57 AM 41.6183 -92.9189 251° West 346 398 26,800 1,645 Climbing Chicago Center
Sun 10:43:59 AM 41.5844 -93.0564 252° West 334 384 28,300 1,694 Climbing Chicago Center
Sun 10:45:01 AM 41.5569 -93.1703 252° West 330 380 30,300 1,694 Climbing Chicago Center
Sun 10:46:03 AM 41.5314 -93.2742 252° West 308 354 31,800 1,366 Climbing Chicago Center
Sun 10:46:42 AM 41.5197 -93.3200 251° West 319 367 32,600 1,485 Climbing Minneapolis Center
Sun 10:47:44 AM 41.4903 -93.4386 252° West 296 341 34,300 1,500 Climbing Minneapolis Center
Sun 10:48:46 AM 41.4628 -93.5508 252° West 275 316 35,700 1,210 Climbing Minneapolis Center
Sun 10:49:48 AM 41.4394 -93.6481 252° West 275 316 36,800 1,056 Climbing Minneapolis Center
Sun 10:50:51 AM 41.4392 -93.7464 270° West 269 310 37,900 1,008 Climbing Minneapolis Center
Sun 10:51:53 AM 41.4403 -93.8442 271° West 268 308 38,900 1,016 Climbing Minneapolis Center
Sun 10:52:55 AM 41.4386 -93.9628 269° West 267 307 40,000 532 Climbing Minneapolis Center
Sun 10:53:57 AM 41.4372 -94.0619 269° West 268 308 40,000  Level Minneapolis Center
Sun 10:54:59 AM 41.4394 -94.1675 272° West 276 318 40,000  Level Minneapolis Center
Sun 10:56:01 AM 41.4428 -94.2786 272° West 288 331 40,000  Level Minneapolis Center
Sun 10:57:03 AM 41.4431 -94.3961 270° West 310 357 40,000  Level Minneapolis Center
Sun 10:58:05 AM 41.4428 -94.5164 270° West 322 371 40,000  Level Minneapolis Center
Sun 10:59:07 AM 41.4408 -94.6631 269° West 329 379 40,000  Level Minneapolis Center
Sun 11:00:09 AM 41.4397 -94.7839 269° West 328 377 40,000  Level Minneapolis Center
Sun 11:01:11 AM 41.4400 -94.9053 270° West 328 377 40,000  Level Minneapolis Center
Sun 11:02:13 AM 41.4400 -95.0253 270° West 326 375 40,000  Level Minneapolis Center
Sun 11:03:15 AM 41.4394 -95.1467 270° West 328 377 40,000  Level Minneapolis Center
Sun 11:04:17 AM 41.4383 -95.2692 269° West 329 379 40,000  Level Minneapolis Center
Sun 11:05:20 AM 41.4375 -95.4150 270° West 328 377 40,000  Level Minneapolis Center
Sun 11:06:22 AM 41.4364 -95.5378 269° West 331 381 40,000  Level Minneapolis Center
Sun 11:07:36 AM 41.4342 -95.6653 269° West 332 382 40,000  Level Minneapolis Center
Sun 11:08:38 AM 41.4333 -95.8147 270° West 335 386 40,000  Level Minneapolis Center
Sun 11:09:40 AM 41.4311 -95.9400 269° West 338 389 40,000  Level Minneapolis Center
Sun 11:10:42 AM 41.4300 -96.0661 269° West 339 390 40,000  Level Minneapolis Center
Sun 11:11:44 AM 41.4286 -96.1917 269° West 339 390 40,000  Level Minneapolis Center
Sun 11:12:47 AM 41.4250 -96.3425 268° West 337 388 40,000  Level Minneapolis Center
Sun 11:13:49 AM 41.4242 -96.4556 269° West 346 398 40,000  Level Minneapolis Center
Sun 11:14:51 AM 41.4214 -96.6058 269° West 339 390 40,000  Level Minneapolis Center
Sun 11:15:53 AM 41.4194 -96.7317 269° West 340 391 40,000  Level Minneapolis Center
Sun 11:17:07 AM 41.4161 -96.8603 268° West 346 398 40,000  Level Minneapolis Center
Sun 11:18:09 AM 41.4131 -97.0114 269° West 342 394 40,000  Level Minneapolis Center
Sun 11:19:11 AM 41.4100 -97.1406 268° West 346 398 40,000  Level Minneapolis Center
Sun 11:20:13 AM 41.4075 -97.2678 269° West 344 396 40,000  Level Minneapolis Center
Sun 11:21:16 AM 41.4031 -97.4228 268° West 348 400 40,000  Level Minneapolis Center
Sun 11:22:18 AM 41.4003 -97.5506 268° West 347 399 40,000  Level Minneapolis Center
Sun 11:23:20 AM 41.3969 -97.6792 268° West 347 399 40,000  Level Minneapolis Center
Sun 11:24:22 AM 41.3933 -97.8086 268° West 349 402 40,000  Level Minneapolis Center
Sun 11:25:24 AM 41.3900 -97.9375 268° West 348 400 40,000  Level Minneapolis Center
Sun 11:26:26 AM 41.3858 -98.0672 268° West 351 404 40,000  Level Minneapolis Center
Sun 11:27:28 AM 41.3814 -98.2128 268° West 349 402 40,000  Level Minneapolis Center
Sun 11:28:30 AM 41.3772 -98.3422 268° West 351 404 40,000  Level Minneapolis Center
Sun 11:29:32 AM 41.3717 -98.4819 267° West 352 405 40,000  Level Minneapolis Center
Sun 11:30:34 AM 41.3644 -98.6139 266° West 357 411 40,000  Level Minneapolis Center
Sun 11:31:36 AM 41.3581 -98.7444 266° West 356 410 40,000  Level Minneapolis Center
Sun 11:32:38 AM 41.3525 -98.8761 267° West 356 410 40,000  Level Minneapolis Center
Sun 11:33:14 AM 41.3517 -98.9675 269° West 359 413 40,000  Level Denver Center
Sun 11:34:16 AM 41.3450 -99.0981 266° West 357 411 40,000  Level Denver Center
Sun 11:35:18 AM 41.3386 -99.2294 266° West 358 412 40,000  Level Denver Center
Sun 11:36:20 AM 41.3308 -99.3861 266° West 356 410 40,000  Level Denver Center
Sun 11:37:22 AM 41.3242 -99.5053 266° West 359 413 40,000  Level Denver Center
Sun 11:38:24 AM 41.3175 -99.6522 267° West 357 411 40,000  Level Denver Center
Sun 11:39:26 AM 41.3108 -99.7794 266° West 360 414 40,000  Level Denver Center
Sun 11:40:28 AM 41.3031 -99.9283 266° West 361 415 40,000  Level Denver Center
Sun 11:41:30 AM 41.2969 -100.0556 266° West 362 417 40,000  Level Denver Center
Sun 11:42:32 AM 41.2878 -100.2036 265° West 362 417 40,000  Level Denver Center
Sun 11:43:34 AM 41.2811 -100.3322 266° West 364 419 40,000  Level Denver Center
Sun 11:44:36 AM 41.2714 -100.4808 265° West 363 418 40,000  Level Denver Center
Sun 11:45:39 AM 41.2642 -100.6067 266° West 360 414 40,000  Level Denver Center
Sun 11:46:41 AM 41.2561 -100.7561 266° West 363 418 40,000  Level Denver Center
Sun 11:48:20 AM 41.2367 -100.9797 263° West 363 418 40,000  Level Salt Lake Center
Sun 11:48:57 AM 41.2369 -101.0522 270° West 363 418 40,000  Level Denver Center
Sun 11:49:59 AM 41.2267 -101.2014 265° West 364 419 40,000  Level Denver Center
Sun 11:51:01 AM 41.2181 -101.3294 265° West 365 420 40,000  Level Denver Center
Sun 11:52:03 AM 41.2078 -101.4794 265° West 367 422 40,000  Level Denver Center
Sun 11:53:05 AM 41.1994 -101.6086 265° West 367 422 40,000  Level Denver Center
Sun 11:54:07 AM 41.1889 -101.7594 265° West 369 425 40,000  Level Denver Center
Sun 11:55:09 AM 41.1789 -101.8883 264° West 367 422 40,000  Level Denver Center
Sun 11:56:11 AM 41.1675 -102.0389 264° West 367 422 40,000  Level Denver Center
Sun 11:57:14 AM 41.1583 -102.1678 265° West 368 423 40,000  Level Denver Center
Sun 11:58:16 AM 41.1481 -102.3183 265° West 368 423 40,000  Level Denver Center
Sun 11:59:18 AM 41.1381 -102.4472 264° West 367 422 40,000  Level Denver Center
Sun 12:00:20 PM 41.1264 -102.5986 264° West 369 425 40,000  Level Denver Center
Sun 12:01:22 PM 41.1153 -102.7286 264° West 371 427 40,000  Level Denver Center
Sun 12:02:24 PM 41.1064 -102.8583 265° West 371 427 40,000  Level Denver Center
Sun 12:03:26 PM 41.0972 -103.0056 265° West 368 423 40,000  Level Denver Center
Sun 12:04:28 PM 41.1089 -103.1569 276° West 369 425 40,000  Level Denver Center
Sun 12:05:30 PM 41.1178 -103.2908 275° West 377 434 40,000  Level Denver Center
Sun 12:06:32 PM 41.1264 -103.4197 275° West 370 426 40,000  Level Denver Center
Sun 12:07:34 PM 41.1367 -103.5742 275° West 374 430 40,000  Level Denver Center
Sun 12:08:36 PM 41.1461 -103.7042 276° West 371 427 40,000  Level Denver Center
Sun 12:09:51 PM 41.1569 -103.8794 275° West 374 430 40,000  Level Denver Center
Sun 12:10:53 PM 41.1656 -104.0350 274° West 376 433 40,000  Level Denver Center
Sun 12:11:55 PM 41.1747 -104.1669 275° West 375 432 40,000  Level Denver Center
Sun 12:12:57 PM 41.1844 -104.3189 275° West 371 427 40,000  Level Denver Center
Sun 12:13:59 PM 41.1914 -104.4508 274° West 371 427 40,000  Level Denver Center
Sun 12:15:01 PM 41.1989 -104.5842 274° West 375 432 40,000  Level Denver Center
Sun 12:16:03 PM 41.2078 -104.7367 274° West 374 430 40,000  Level Denver Center
Sun 12:17:05 PM 41.2236 -104.8686 279° West 377 434 40,000  Level Denver Center
Sun 12:18:07 PM 41.2439 -105.0197 280° West 373 429 40,000  Level Denver Center
Sun 12:19:09 PM 41.2614 -105.1500 280° West 373 429 40,000  Level Denver Center
Sun 12:20:11 PM 41.2806 -105.3006 280° West 371 427 40,000  Level Denver Center
Sun 12:21:13 PM 41.2944 -105.4331 278° West 376 433 40,000  Level Denver Center
Sun 12:22:16 PM 41.3106 -105.5828 278° West 369 425 40,000  Level Denver Center
Sun 12:23:18 PM 41.3244 -105.7111 278° West 366 421 40,000  Level Denver Center
Sun 12:24:20 PM 41.3386 -105.8583 277° West 362 417 40,000  Level Denver Center
Sun 12:25:22 PM 41.3514 -105.9861 278° West 362 417 40,000  Level Denver Center
Sun 12:26:24 PM 41.3653 -106.1158 278° West 367 422 40,000  Level Denver Center
Sun 12:27:26 PM 41.3792 -106.2622 277° West 362 417 40,000  Level Denver Center
Sun 12:28:28 PM 41.3925 -106.3917 278° West 367 422 40,000  Level Denver Center
Sun 12:29:30 PM 41.4064 -106.5375 277° West 361 415 40,000  Level Denver Center
Sun 12:30:32 PM 41.4189 -106.6631 278° West 357 411 40,000  Level Denver Center
Sun 12:31:34 PM 41.4317 -106.8122 277° West 361 415 40,000  Level Denver Center
Sun 12:32:36 PM 41.4433 -106.9378 277° West 360 414 40,000  Level Denver Center
Sun 12:33:38 PM 41.4583 -107.0867 278° West 362 417 40,000  Level Denver Center
Sun 12:34:40 PM 41.4697 -107.2144 277° West 363 418 40,000  Level Denver Center
Sun 12:35:42 PM 41.4817 -107.3642 276° West 363 418 40,000  Level Denver Center
Sun 12:36:44 PM 41.4933 -107.4925 277° West 364 419 40,000  Level Denver Center
Sun 12:37:46 PM 41.5056 -107.6411 276° West 363 418 40,000  Level Denver Center
Sun 12:38:48 PM 41.5161 -107.7694 276° West 363 418 40,000  Level Denver Center
Sun 12:39:50 PM 41.5297 -107.9206 277° West 368 423 40,000  Level Denver Center
Sun 12:40:52 PM 41.5397 -108.0511 276° West 370 426 40,000  Level Denver Center
Sun 12:41:54 PM 41.5506 -108.1794 276° West 366 421 40,000  Level Denver Center
Sun 12:42:56 PM 41.5628 -108.3308 276° West 368 423 40,000  Level Denver Center
Sun 12:43:59 PM 41.5725 -108.4603 276° West 368 423 40,000  Level Denver Center
Sun 12:45:01 PM 41.5844 -108.6100 276° West 365 420 40,000  Level Denver Center
Sun 12:46:03 PM 41.5944 -108.7369 276° West 363 418 40,000  Level Denver Center
Sun 12:47:05 PM 41.6067 -108.8856 276° West 364 419 40,000  Level Denver Center
Sun 12:48:17 PM 41.6203 -109.0564 276° West 363 418 40,000  Level Salt Lake Center
Sun 12:49:19 PM 41.6281 -109.1836 275° West 364 419 40,000  Level Salt Lake Center
Sun 12:50:21 PM 41.6375 -109.3311 275° West 362 417 40,000  Level Salt Lake Center
Sun 12:51:23 PM 41.6467 -109.4583 276° West 361 415 40,000 -192 Level Salt Lake Center
Sun 12:52:26 PM 41.6553 -109.6061 275° West 360 414 39,600 -1,056 Descending Salt Lake Center
Sun 12:53:28 PM 41.6633 -109.7294 275° West 350 403 37,800 -1,839 Descending Salt Lake Center
Sun 12:54:30 PM 41.6728 -109.8739 275° West 351 404 35,800 -1,790 Descending Salt Lake Center
Sun 12:55:32 PM 41.6811 -110.0025 275° West 361 415 34,100 -1,839 Descending Salt Lake Center
Sun 12:56:34 PM 41.6900 -110.1542 275° West 366 421 32,000 -1,839 Descending Salt Lake Center
Sun 12:57:36 PM 41.6997 -110.2886 276° West 379 436 30,300 -968 Descending Salt Lake Center
Sun 12:58:38 PM 41.7094 -110.4500 275° West 388 447 30,000 -581 Descending Salt Lake Center
Sun 12:59:40 PM 41.7172 -110.5889 274° West 393 452 29,100 -1,113 Descending Salt Lake Center
Sun 01:00:42 PM 41.7269 -110.7536 275° West 397 457 27,700 -1,258 Descending Salt Lake Center
Sun 01:01:44 PM 41.7342 -110.8961 274° West 401 461 26,500 -1,210 Descending Salt Lake Center
Sun 01:02:46 PM 41.7436 -111.0539 275° West 400 460 25,200 -1,210 Descending Salt Lake Center
Sun 01:03:48 PM 41.7519 -111.1989 274° West 395 455 24,000 -1,113 Descending Salt Lake Center
Sun 01:04:50 PM 41.7592 -111.3397 274° West 385 443 22,900 -1,113 Descending Salt Lake Center
Sun 01:05:52 PM 41.7661 -111.4778 274° West 375 432 21,700 -1,191 Descending Salt Lake Center
Sun 01:07:06 PM 41.7678 -111.6531 271° West 376 433 20,200 -1,113 Descending Salt Lake Center
Sun 01:07:56 PM 41.7231 -111.7547 240° Southwest 360 414 19,400 -1,018 Descending Salt Lake Center
Sun 01:08:58 PM 41.6650 -111.8586 233° Southwest 351 404 18,300 -1,403 Descending Salt Lake Center
Sun 01:10:00 PM 41.6075 -111.9606 233° Southwest 346 398 16,500 -1,645 Descending Salt Lake Center
Sun 01:11:02 PM 41.5411 -112.0456 224° Southwest 342 394 14,900 -1,431 Descending Salt Lake Center
Sun 01:12:10 PM 41.4264 -112.0439 179° South 337 388 13,400 -1,266 Descending Salt Lake Center
Sun 01:13:10 PM 41.3322 -112.0361 176° South 341 392 12,200 -1,119 Descending Salt Lake Center
Sun 01:14:08 PM 41.2469 -112.0131 169° South 333 383 11,200 -600 Descending Salt Lake Center
Sun 01:15:10 PM 41.1667 -111.9606 154° Southeast 323 372 11,000 -768 Descending Salt Lake Center
Sun 01:16:13 PM 41.0831 -111.9617 181° South 285 328 9,600 -1,561 Descending Salt Lake Center
Sun 01:17:13 PM 40.9972 -111.9628 181° South 285 328 7,800 -1,488 Descending Salt Lake Center
Sun 01:18:14 PM 40.9303 -111.9628 180° South 238 274 6,600 -1,033 Descending Salt Lake Center
Sun 01:19:15 PM 40.8767 -111.9639 181° South 182 209 5,700 -836 Descending Salt Lake Center
Sun 01:20:16 PM 40.8339 -111.9644 181° South 146 168 4,900 -656 Descending Salt Lake Center
Sun 01:21:23 PM 40.8017 -111.9625 177° South 120 138 4,300 -537 Descending Salt Lake Center
Sun 01:23:00 PM 40.7833 -111.9667 180° South  Level FlightAware Approximate

Login

Don't have an account? Register now (free) for customized features, flight alerts, and more!